Canyon, TX (79015)

1:54 AM CST en Diciembre 08, 2016 (GMT -0600)
SE Canyon | | Change Station

Alt 3527 ft 34.97 °N, 101.91 °W | Updated 1 minute ago

Nublado
Nublado
20.4 ° F
Sensación térmica 9 ° F
N
11.0
Viento Variable Viento desde NNE

Hoy
Alta -- | Baja -- ° F
--% Posibilidad de precipitaciones
Ayer
Alta -- | Baja -- ° F
Precip. -- pul
Presión 30.56 pul
Visibilidad 10.0 Millas
Nubes Nublado 900 ft
Vientos helados 9 ° F
Punto de rocío 15 ° F
Humedad 79%
Precipitaciones 0.00 pul
Espesor de la nieve No disponible.
7:43 AM 5:36 PM
Cuarto creciente, 61% visible
METAR KAMA 080653Z AUTO 02010KT 10SM OVC009 M07/M09 A3048 RMK AO2 SLP348 T10671089
Presión 30.56 pul
Visibilidad 10.0 Millas
Nubes Nublado 900 ft
Vientos helados 9 ° F
Punto de rocío 15 ° F
Humedad 79%
Precipitaciones 0.00 pul
Espesor de la nieve No disponible.
7:43 AM 5:36 PM
Cuarto creciente, 61% visible
METAR KAMA 080653Z AUTO 02010KT 10SM OVC009 M07/M09 A3048 RMK AO2 SLP348 T10671089

10-Day Weather Forecast

Almanac

Astronomía

Dec. 08, 2016 Salida Puesta
Hora real
Crepúsculo civil
Crepúsculo náutico
Crepúsculo astronómico
Luna
Horas de luz
Horas de luz
Tomorrow will be .
, % of the Moon is Illuminated

Extremos de hoy

Máximos del estado Bajos del estado

Community

WunderPhotos

Upload Photos

1,956,259 ¡fotos cargadas!

WunderBlog® & News

Nearby

Calidad del aire

  Calidad del aire Índice AQ Contaminante
Not available.

Grosos de nieve

Estación Profundido Altura

Actividad de terremotos

Ciudad Distance Mag. Tiempo y dato
Magnitud mínima muestra es 2,5.

Temperaturas de aguas costeras

Lugar Temperatura

Stations

Estaciones meteorológicas cercanas

Ubicación de la estación Temp. Vientos helados Punto de rocío Humedad Viento Precip. Alt Actualizado Tipo
                   

Watches & Warnings

There are currently no watches in effect.